Time;durP1;ratioP1;P1;durP2;ratioP2;P2;SDS_P1;SDS_P2;PMS_P1;PMS_P2;Temp;Humidity;BMP_temperature;BMP_pressure;BME280_temperature;BME280_humidity;BME280_pressure;Samples;Min_cycle;Max_cycle;Signal;HPM_P1;HPM_P2
2023/06/26 00:01:43;;;;;;;;;;;;;;;21.73;57.28;100667.94;5024706;28;5556;-76
2023/06/26 00:04:37;;;;;;;;;;;;;;;21.73;57.14;100667.13;5025634;28;5548;-78
2023/06/26 00:07:29;;;;;;;;;;;;;;;21.73;57.36;100664.41;5024434;28;4454;-76
2023/06/26 00:10:21;;;;;;;;;;;;;;;21.70;57.32;100663.06;5024715;28;5541;-76
2023/06/26 00:13:13;;;;;;;;;;;;;;;21.70;57.09;100670.47;5025181;28;4581;-76
2023/06/26 00:16:04;;;;;;;;;;;;;;;21.70;57.16;100668.53;5027888;28;5021;-78
2023/06/26 00:18:58;;;;;;;;;;;;;;;21.68;56.95;100664.47;5024559;28;4597;-78
2023/06/26 00:21:50;;;;;;;;;;;;;;;21.67;56.93;100663.63;5024202;28;4531;-76
2023/06/26 00:24:42;;;;;;;;;;;;;;;21.67;57.29;100662.81;5026206;28;5581;-76
2023/06/26 00:27:33;;;;;;;;;;;;;;;21.65;56.93;100660.38;5024140;28;5605;-75
2023/06/26 00:30:26;;;;;;;;;;;;;;;21.65;57.01;100654.91;5025586;28;4628;-78
2023/06/26 00:33:18;;;;;;;;;;;;;;;21.63;57.10;100650.81;5025601;28;4967;-79
2023/06/26 00:36:10;;;;;;;;;;;;;;;21.62;57.02;100649.16;5024722;28;4485;-79
2023/06/26 00:39:03;;;;;;;;;;;;;;;21.60;57.15;100652.22;5026777;28;4852;-78
2023/06/26 00:41:55;;;;;;;;;;;;;;;21.60;56.82;100649.47;5022718;28;4925;-79
2023/06/26 00:44:47;;;;;;;;;;;;;;;21.60;56.99;100651.41;5028903;28;4470;-75
2023/06/26 00:47:39;;;;;;;;;;;;;;;21.59;57.28;100657.97;5028164;28;5415;-76
2023/06/26 00:50:31;;;;;;;;;;;;;;;21.58;56.87;100653.59;5028955;28;4846;-77
2023/06/26 00:53:23;;;;;;;;;;;;;;;21.57;56.87;100655.53;5035187;28;4702;-75
2023/06/26 00:56:15;;;;;;;;;;;;;;;21.56;56.96;100656.66;5039037;28;4826;-76
2023/06/26 00:59:07;;;;;;;;;;;;;;;21.54;56.73;100662.41;5038806;28;4964;-77
2023/06/26 01:01:59;;;;;;;;;;;;;;;21.52;56.87;100663.81;5028961;28;5646;-77
2023/06/26 01:04:51;;;;;;;;;;;;;;;21.13;56.74;100596.25;5028019;28;5012;-76
2023/06/26 01:07:43;;;;;;;;;;;;;;;21.52;56.91;100653.66;5029112;28;5012;-78
2023/06/26 01:10:35;;;;;;;;;;;;;;;21.52;57.02;100655.59;5030009;28;5371;-76
2023/06/26 01:13:27;;;;;;;;;;;;;;;21.50;56.94;100644.94;5030291;28;4602;-78
2023/06/26 01:16:20;;;;;;;;;;;;;;;21.49;56.87;100646.03;5030216;28;4613;-76
2023/06/26 01:19:12;;;;;;;;;;;;;;;21.49;56.92;100642.47;5025577;28;4974;-77
2023/06/26 01:22:04;;;;;;;;;;;;;;;21.49;56.54;100637.00;5027613;28;4512;-75
2023/06/26 01:24:57;;;;;;;;;;;;;;;21.47;56.49;100641.94;5028442;28;4982;-76
2023/06/26 01:27:48;;;;;;;;;;;;;;;21.47;56.76;100644.66;5028130;28;4712;-78
2023/06/26 01:30:40;;;;;;;;;;;;;;;21.44;56.81;100643.34;5027061;28;4969;-75
2023/06/26 01:33:32;;;;;;;;;;;;;;;21.46;56.76;100641.13;5028104;28;4943;-77
2023/06/26 01:36:24;;;;;;;;;;;;;;;21.44;56.81;100639.78;5029238;28;4763;-76
2023/06/26 01:39:16;;;;;;;;;;;;;;;21.43;56.64;100641.69;5030686;28;4560;-76
2023/06/26 01:42:08;;;;;;;;;;;;;;;21.42;56.56;100637.34;5026761;28;4594;-76
2023/06/26 01:45:00;;;;;;;;;;;;;;;21.42;56.70;100642.00;5025621;28;4960;-76
2023/06/26 01:47:52;;;;;;;;;;;;;;;21.41;56.37;100632.13;5026069;28;4454;-78
2023/06/26 01:50:44;;;;;;;;;;;;;;;21.40;56.62;100633.25;5026884;28;4817;-78
2023/06/26 01:53:36;;;;;;;;;;;;;;;21.39;56.49;100626.97;5028497;28;4487;-77
2023/06/26 01:56:28;;;;;;;;;;;;;;;21.39;56.63;100631.63;5026004;28;4398;-78
2023/06/26 01:59:20;;;;;;;;;;;;;;;21.38;56.54;100628.06;5036659;28;4720;-77
2023/06/26 02:02:12;;;;;;;;;;;;;;;21.37;56.53;100620.94;5036371;28;5338;-75
2023/06/26 02:05:04;;;;;;;;;;;;;;;21.36;56.55;100618.50;5026830;28;4644;-79
2023/06/26 02:07:56;;;;;;;;;;;;;;;21.35;56.40;100617.66;5027310;28;4722;-75
2023/06/26 02:10:48;;;;;;;;;;;;;;;21.35;56.54;100616.84;5029150;28;4474;-77
2023/06/26 02:13:40;;;;;;;;;;;;;;;21.34;56.42;100616.03;5029200;28;5223;-78
2023/06/26 02:16:32;;;;;;;;;;;;;;;21.33;56.68;100612.47;5026629;28;5121;-77
2023/06/26 02:19:24;;;;;;;;;;;;;;;21.32;56.49;100615.50;5025089;28;4590;-76
2023/06/26 02:22:17;;;;;;;;;;;;;;;21.31;56.56;100605.66;5026971;28;4382;-77
2023/06/26 02:25:09;;;;;;;;;;;;;;;21.30;56.57;100601.28;5025373;28;5671;-78
2023/06/26 02:28:01;;;;;;;;;;;;;;;21.29;56.46;100603.19;5027193;28;4663;-76
2023/06/26 02:30:53;;;;;;;;;;;;;;;21.28;56.37;100601.56;5024632;28;4622;-77
2023/06/26 02:33:45;;;;;;;;;;;;;;;21.27;56.41;100593.66;5029611;28;4797;-77
2023/06/26 02:36:37;;;;;;;;;;;;;;;21.27;56.40;100593.66;5027489;28;5340;-76
2023/06/26 02:39:29;;;;;;;;;;;;;;;21.26;56.40;100601.03;5025464;28;5328;-74
2023/06/26 02:42:21;;;;;;;;;;;;;;;21.25;56.16;100593.13;5025915;28;5688;-75
2023/06/26 02:45:12;;;;;;;;;;;;;;;21.25;56.40;100590.38;5021945;28;4955;-77
2023/06/26 02:48:05;;;;;;;;;;;;;;;21.24;56.07;100591.50;5026800;28;4753;-79
2023/06/26 02:50:57;;;;;;;;;;;;;;;21.23;56.45;100587.09;5028295;28;4868;-78
2023/06/26 02:53:49;;;;;;;;;;;;;;;21.22;56.23;100588.22;5025818;28;5583;-75
2023/06/26 02:56:41;;;;;;;;;;;;;;;21.22;56.16;100586.28;5022442;28;5162;-76
2023/06/26 02:59:33;;;;;;;;;;;;;;;21.21;56.36;100584.66;5025303;28;4920;-77
2023/06/26 03:02:25;;;;;;;;;;;;;;;21.20;56.28;100583.00;5035589;28;5360;-78
2023/06/26 03:05:17;;;;;;;;;;;;;;;21.20;56.21;100584.94;5035543;28;5460;-78
2023/06/26 03:08:09;;;;;;;;;;;;;;;21.18;56.28;100588.00;5028550;28;4843;-77
2023/06/26 03:11:01;;;;;;;;;;;;;;;21.17;56.23;100589.06;5022279;28;4664;-75
2023/06/26 03:13:53;;;;;;;;;;;;;;;21.17;56.13;100591.81;5025595;28;4617;-77
2023/06/26 03:16:45;;;;;;;;;;;;;;;21.16;56.15;100584.72;5027660;28;4603;-78
2023/06/26 03:19:37;;;;;;;;;;;;;;;21.16;55.97;100590.19;5026552;28;5259;-78
2023/06/26 03:22:29;;;;;;;;;;;;;;;21.15;56.18;100587.72;5026860;28;4986;-78
2023/06/26 03:25:21;;;;;;;;;;;;;;;21.14;56.27;100580.63;5026063;28;5376;-76
2023/06/26 03:28:13;;;;;;;;;;;;;;;20.43;55.93;100478.91;5024683;28;4989;-75
2023/06/26 03:31:05;;;;;;;;;;;;;;;21.13;56.12;100582.56;5028173;28;4749;-78
2023/06/26 03:33:57;;;;;;;;;;;;;;;21.12;56.14;100577.34;5029283;28;4842;-75
2023/06/26 03:36:49;;;;;;;;;;;;;;;21.12;56.23;100582.84;5029732;28;4855;-76
2023/06/26 03:39:41;;;;;;;;;;;;;;;21.12;56.12;100580.09;5026022;28;4578;-77
2023/06/26 03:42:33;;;;;;;;;;;;;;;21.10;56.04;100575.72;5022700;28;5340;-75
2023/06/26 03:45:25;;;;;;;;;;;;;;;21.09;55.74;100567.81;5026885;28;4825;-76
2023/06/26 03:48:16;;;;;;;;;;;;;;;21.08;55.98;100566.97;5026576;28;5337;-78
2023/06/26 03:51:08;;;;;;;;;;;;;;;21.07;56.14;100564.53;5026834;28;4548;-76
2023/06/26 03:54:00;;;;;;;;;;;;;;;21.06;56.11;100562.91;5025487;28;4473;-78
2023/06/26 03:56:52;;;;;;;;;;;;;;;21.06;56.04;100563.75;5024104;28;4474;-76
2023/06/26 03:59:44;;;;;;;;;;;;;;;21.05;55.86;100559.34;5024957;28;5492;-78
2023/06/26 04:02:36;;;;;;;;;;;;;;;21.05;55.72;100555.81;5026145;28;5373;-78
2023/06/26 04:05:28;;;;;;;;;;;;;;;21.05;55.86;100555.81;5033067;28;4689;-77
2023/06/26 04:08:20;;;;;;;;;;;;;;;21.03;56.12;100553.38;5032706;28;4760;-78
2023/06/26 04:11:12;;;;;;;;;;;;;;;21.04;55.84;100551.44;5026858;28;4732;-77
2023/06/26 04:14:04;;;;;;;;;;;;;;;21.03;55.79;100547.91;5025161;28;4507;-76
2023/06/26 04:16:57;;;;;;;;;;;;;;;21.03;55.80;100549.78;5026486;28;4710;-75
2023/06/26 04:19:48;;;;;;;;;;;;;;;21.02;55.81;100548.16;5027415;28;4781;-75
2023/06/26 04:22:40;;;;;;;;;;;;;;;21.01;55.79;100546.53;5027829;28;4818;-76
2023/06/26 04:25:32;;;;;;;;;;;;;;;21.00;55.97;100551.22;5027670;28;4868;-76
2023/06/26 04:28:24;;;;;;;;;;;;;;;21.01;55.87;100552.03;5027009;28;4973;-78
2023/06/26 04:31:16;;;;;;;;;;;;;;;21.00;55.91;100550.38;5029893;28;4996;-76
2023/06/26 04:34:08;;;;;;;;;;;;;;;21.00;55.82;100551.22;5027567;28;4666;-77
2023/06/26 04:37:00;;;;;;;;;;;;;;;20.99;55.80;100551.47;5029803;28;4730;-76
2023/06/26 04:39:52;;;;;;;;;;;;;;;20.97;55.82;100540.84;5028189;28;4682;-76
2023/06/26 04:42:44;;;;;;;;;;;;;;;20.97;55.75;100535.38;5029935;28;4899;-76
2023/06/26 04:45:36;;;;;;;;;;;;;;;20.98;55.49;100538.91;5029593;28;4256;-76
2023/06/26 04:48:28;;;;;;;;;;;;;;;20.96;55.65;100538.38;5031038;28;4926;-79
2023/06/26 04:51:20;;;;;;;;;;;;;;;20.96;55.57;100538.38;5028934;28;5399;-75
2023/06/26 04:54:11;;;;;;;;;;;;;;;20.96;55.57;100532.91;5028507;28;4803;-77
2023/06/26 04:57:03;;;;;;;;;;;;;;;20.95;55.81;100534.03;5030276;28;4652;-75
2023/06/26 04:59:55;;;;;;;;;;;;;;;20.94;55.66;100535.94;5029991;28;5430;-74
2023/06/26 05:02:47;;;;;;;;;;;;;;;20.94;55.57;100535.09;5029888;28;4652;-76
2023/06/26 05:05:39;;;;;;;;;;;;;;;20.94;55.56;100540.56;5028898;28;5260;-78
2023/06/26 05:08:31;;;;;;;;;;;;;;;20.94;55.46;100535.94;5040846;28;5266;-75
2023/06/26 05:11:23;;;;;;;;;;;;;;;20.92;55.48;100529.13;5038708;28;4809;-74
2023/06/26 05:14:15;;;;;;;;;;;;;;;20.93;55.40;100541.69;5030623;28;4733;-77
2023/06/26 05:17:07;;;;;;;;;;;;;;;20.92;55.36;100529.13;5029312;28;4800;-76
2023/06/26 05:19:59;;;;;;;;;;;;;;;20.92;55.50;100526.38;5036595;28;4268;-77
2023/06/26 05:22:51;;;;;;;;;;;;;;;20.31;55.31;100427.34;5038969;28;5219;-77
2023/06/26 05:25:43;;;;;;;;;;;;;;;20.92;55.46;100523.66;5038518;28;4467;-75
2023/06/26 05:28:36;;;;;;;;;;;;;;;20.92;55.35;100527.19;5037522;28;5066;-77
2023/06/26 05:31:27;;;;;;;;;;;;;;;20.93;55.35;100515.13;5039348;28;4823;-75
2023/06/26 05:34:19;;;;;;;;;;;;;;;20.91;55.44;100514.59;5040000;28;4750;-76
2023/06/26 05:37:11;;;;;;;;;;;;;;;20.90;55.39;100515.72;5040159;28;4822;-76
2023/06/26 05:40:04;;;;;;;;;;;;;;;20.92;55.22;100520.91;5038792;28;4864;-78
2023/06/26 05:42:56;;;;;;;;;;;;;;;20.92;55.36;100518.19;5038700;28;4818;-75
2023/06/26 05:45:48;;;;;;;;;;;;;;;20.91;55.12;100520.06;5038924;28;4557;-78
2023/06/26 05:48:40;;;;;;;;;;;;;;;20.89;55.25;100503.13;5039604;28;5545;-76
2023/06/26 05:51:32;;;;;;;;;;;;;;;20.90;55.27;100502.03;5037181;28;4682;-76
2023/06/26 05:54:23;;;;;;;;;;;;;;;20.90;55.52;100503.94;5036325;28;4627;-77
2023/06/26 05:57:15;;;;;;;;;;;;;;;20.91;55.50;100500.91;5038935;28;4990;-76
2023/06/26 06:00:10;;;;;;;;;;;;;;;20.90;55.34;100504.75;5037070;28;5599;-77
2023/06/26 06:03:02;;;;;;;;;;;;;;;20.90;55.15;100498.47;5033246;28;4958;-77
2023/06/26 06:05:54;;;;;;;;;;;;;;;20.89;55.04;100492.19;5036727;28;4554;-76
2023/06/26 06:08:46;;;;;;;;;;;;;;;20.90;55.46;100501.22;5035465;28;4574;-78
2023/06/26 06:11:38;;;;;;;;;;;;;;;20.89;55.40;100489.47;5037106;28;4587;-78
2023/06/26 06:14:30;;;;;;;;;;;;;;;20.90;55.33;100493.00;5037096;28;4575;-77
2023/06/26 06:17:22;;;;;;;;;;;;;;;20.90;55.20;100491.06;5035892;28;4438;-76
2023/06/26 06:20:14;;;;;;;;;;;;;;;20.91;55.04;100483.69;5038042;28;4432;-77
2023/06/26 06:23:06;;;;;;;;;;;;;;;20.89;54.99;100481.25;5035926;28;5140;-78
2023/06/26 06:25:58;;;;;;;;;;;;;;;20.89;55.33;100481.25;5038098;28;4370;-78
2023/06/26 06:28:50;;;;;;;;;;;;;;;20.89;55.35;100472.22;5036941;28;5321;-76
2023/06/26 06:31:42;;;;;;;;;;;;;;;20.90;55.23;100476.59;5036008;28;4439;-77
2023/06/26 06:34:34;;;;;;;;;;;;;;;20.89;55.08;100466.75;5038731;28;4880;-77
2023/06/26 06:37:28;;;;;;;;;;;;;;;20.89;55.05;100470.28;5037458;28;5457;-77
2023/06/26 06:40:19;;;;;;;;;;;;;;;20.88;54.96;100465.91;5038751;28;4746;-78
2023/06/26 06:43:11;;;;;;;;;;;;;;;20.88;55.21;100460.44;5037327;28;4821;-78
2023/06/26 06:46:03;;;;;;;;;;;;;;;20.86;54.92;100460.75;5036141;28;4661;-76
2023/06/26 06:48:56;;;;;;;;;;;;;;;20.87;55.20;100458.81;5035724;28;5417;-76
2023/06/26 06:51:48;;;;;;;;;;;;;;;20.87;55.21;100447.88;5039622;28;4696;-78
2023/06/26 06:54:40;;;;;;;;;;;;;;;20.86;55.24;100448.97;5035076;28;5495;-77
2023/06/26 06:57:35;;;;;;;;;;;;;;;20.86;55.20;100454.47;5038101;28;4698;-75
2023/06/26 07:00:26;;;;;;;;;;;;;;;20.85;55.06;100450.91;5036432;28;4678;-78
2023/06/26 07:03:18;;;;;;;;;;;;;;;20.86;55.17;100454.47;5037331;28;5393;-77
2023/06/26 07:06:10;;;;;;;;;;;;;;;20.85;55.05;100456.38;5036827;28;4881;-78
2023/06/26 07:09:02;;;;;;;;;;;;;;;20.85;55.07;100448.16;5033910;28;5425;-76
2023/06/26 07:11:54;;;;;;;;;;;;;;;20.85;54.93;100442.69;5036238;28;4819;-75
2023/06/26 07:14:45;;;;;;;;;;;;;;;20.85;55.14;100444.59;5036097;28;4822;-78
2023/06/26 07:17:38;;;;;;;;;;;;;;;20.85;55.21;100439.97;5032448;28;5576;-76
2023/06/26 07:20:30;;;;;;;;;;;;;;;20.84;55.41;100437.50;5036236;28;5414;-79
2023/06/26 07:23:22;;;;;;;;;;;;;;;20.85;55.19;100428.16;5036190;28;4657;-76
2023/06/26 07:26:14;;;;;;;;;;;;;;;20.84;55.26;100430.09;5037603;28;5434;-74
2023/06/26 07:29:06;;;;;;;;;;;;;;;20.84;55.16;100423.81;5036909;28;4567;-78
2023/06/26 07:31:58;;;;;;;;;;;;;;;20.83;55.05;100419.47;5035434;28;4472;-78
2023/06/26 07:34:50;;;;;;;;;;;;;;;20.84;54.96;100412.88;5033952;28;5007;-77
2023/06/26 07:37:42;;;;;;;;;;;;;;;20.84;55.15;100410.13;5037047;28;4711;-76
2023/06/26 07:40:34;;;;;;;;;;;;;;;20.84;54.95;100404.66;5028834;28;4869;-76
2023/06/26 07:43:26;;;;;;;;;;;;;;;20.83;55.22;100398.38;5023560;28;5123;-75
2023/06/26 07:46:18;;;;;;;;;;;;;;;20.83;55.20;100398.38;5023375;28;5250;-77
2023/06/26 07:49:10;;;;;;;;;;;;;;;20.43;55.12;100336.69;5024423;28;4500;-78
2023/06/26 07:52:02;;;;;;;;;;;;;;;20.83;55.19;100392.09;5029766;28;4823;-77
2023/06/26 07:54:54;;;;;;;;;;;;;;;20.84;55.18;100393.72;5027492;28;4583;-78
2023/06/26 07:57:46;;;;;;;;;;;;;;;20.84;55.27;100380.03;5029643;28;4867;-78
2023/06/26 08:00:38;;;;;;;;;;;;;;;20.83;55.27;100379.22;5026265;28;4711;-77
2023/06/26 08:03:30;;;;;;;;;;;;;;;20.83;55.23;100365.53;5030656;28;4654;-77
2023/06/26 08:06:22;;;;;;;;;;;;;;;20.83;55.21;100361.97;5026410;28;5301;-76
2023/06/26 08:09:13;;;;;;;;;;;;;;;20.83;54.97;100359.25;5029723;28;4660;-77
2023/06/26 08:12:05;;;;;;;;;;;;;;;20.84;55.17;100353.47;5026109;28;4775;-79
2023/06/26 08:14:57;;;;;;;;;;;;;;;20.83;55.10;100353.78;5023002;28;4815;-77
2023/06/26 08:17:50;;;;;;;;;;;;;;;20.84;55.22;100349.91;5024595;28;4659;-76
2023/06/26 08:20:42;;;;;;;;;;;;;;;20.83;55.30;100340.09;5026202;28;5139;-78
2023/06/26 08:23:34;;;;;;;;;;;;;;;20.84;55.23;100342.53;5025047;28;4687;-77
2023/06/26 08:26:26;;;;;;;;;;;;;;;20.84;55.11;100333.50;5030099;28;4704;-78
2023/06/26 08:29:18;;;;;;;;;;;;;;;20.84;55.18;100322.56;5022462;28;5711;-77
2023/06/26 08:32:10;;;;;;;;;;;;;;;20.84;55.25;100317.06;5026874;28;5237;-75
2023/06/26 08:35:01;;;;;;;;;;;;;;;20.84;55.22;100317.88;5031729;28;4767;-79
2023/06/26 08:37:54;;;;;;;;;;;;;;;20.84;55.08;100314.34;5032812;28;5265;-77
2023/06/26 08:40:46;;;;;;;;;;;;;;;20.84;55.19;100304.19;5029598;28;4825;-77
2023/06/26 08:43:38;;;;;;;;;;;;;;;20.85;55.00;100311.31;5025971;28;5068;-77
2023/06/26 08:46:30;;;;;;;;;;;;;;;20.85;54.91;100302.28;5024047;28;4902;-77
2023/06/26 08:49:22;;;;;;;;;;;;;;;20.85;54.94;100296.81;5029751;28;4756;-75
2023/06/26 08:52:14;;;;;;;;;;;;;;;20.85;55.10;100292.16;5023624;28;5110;-78
2023/06/26 08:55:05;;;;;;;;;;;;;;;20.50;55.12;100241.44;5023059;28;4634;-78
2023/06/26 08:57:57;;;;;;;;;;;;;;;20.86;55.17;100282.84;5024767;28;4737;-77
2023/06/26 09:00:49;;;;;;;;;;;;;;;20.86;55.10;100279.28;5025533;28;5215;-75
2023/06/26 09:03:41;;;;;;;;;;;;;;;20.87;55.12;100280.91;5029140;28;4628;-75
2023/06/26 09:06:33;;;;;;;;;;;;;;;20.87;55.27;100278.97;5026802;28;4724;-78
2023/06/26 09:09:25;;;;;;;;;;;;;;;20.87;55.26;100278.97;5027590;28;4693;-76
2023/06/26 09:12:17;;;;;;;;;;;;;;;20.87;55.14;100269.97;5031298;28;5211;-76
2023/06/26 09:15:09;;;;;;;;;;;;;;;20.89;55.05;100266.94;5027253;28;5448;-79
2023/06/26 09:18:00;;;;;;;;;;;;;;;20.88;55.22;100257.91;5027301;28;5304;-75
2023/06/26 09:20:52;;;;;;;;;;;;;;;20.89;55.15;100254.06;5024677;28;4452;-77
2023/06/26 09:23:43;;;;;;;;;;;;;;;20.90;55.23;100246.66;5027246;28;5426;-77
2023/06/26 09:26:35;;;;;;;;;;;;;;;20.90;55.25;100238.44;5029854;28;4608;-77
2023/06/26 09:29:28;;;;;;;;;;;;;;;20.90;55.35;100230.25;5035676;28;5554;-76
2023/06/26 09:32:20;;;;;;;;;;;;;;;20.90;55.38;100220.09;5034484;28;4709;-76
2023/06/26 09:35:12;;;;;;;;;;;;;;;20.91;55.13;100218.19;5037453;28;5512;-78
2023/06/26 09:38:04;;;;;;;;;;;;;;;20.92;55.20;100222.56;5035846;28;5004;-76
2023/06/26 09:40:56;;;;;;;;;;;;;;;20.91;55.23;100208.03;5037842;28;4683;-75
2023/06/26 09:43:49;;;;;;;;;;;;;;;20.92;55.14;100206.13;5039308;28;4939;-76
2023/06/26 09:46:40;;;;;;;;;;;;;;;20.93;55.44;100207.75;5037654;28;4699;-76
2023/06/26 09:49:31;;;;;;;;;;;;;;;20.94;55.38;100198.41;5039004;28;4642;-78
2023/06/26 09:52:23;;;;;;;;;;;;;;;20.94;55.24;100191.03;5030652;28;4660;-77
2023/06/26 09:55:15;;;;;;;;;;;;;;;20.94;55.46;100173.78;5029684;28;5232;-77
2023/06/26 09:58:07;;;;;;;;;;;;;;;20.95;55.25;100172.69;5028937;28;4738;-79
2023/06/26 10:00:59;;;;;;;;;;;;;;;20.95;55.33;100173.50;5031922;28;5606;-76
2023/06/26 10:03:51;;;;;;;;;;;;;;;20.96;55.25;100166.91;5029717;28;4824;-75
2023/06/26 10:06:43;;;;;;;;;;;;;;;20.96;55.36;100160.63;5029648;28;4833;-76
2023/06/26 10:09:34;;;;;;;;;;;;;;;20.97;55.52;100152.13;5030233;28;5201;-77
2023/06/26 10:12:26;;;;;;;;;;;;;;;20.98;55.16;100161.16;5031245;28;4841;-76
2023/06/26 10:15:17;;;;;;;;;;;;;;;20.98;55.35;100147.47;5031835;28;4739;-76
2023/06/26 10:18:09;;;;;;;;;;;;;;;21.00;55.33;100140.56;5026352;28;4811;-77
2023/06/26 10:21:01;;;;;;;;;;;;;;;20.99;55.22;100138.13;5028928;28;5365;-77
2023/06/26 10:23:53;;;;;;;;;;;;;;;21.00;55.60;100129.63;5025593;28;5251;-76
2023/06/26 10:26:45;;;;;;;;;;;;;;;21.02;55.54;100126.56;5028890;28;5436;-77
2023/06/26 10:29:37;;;;;;;;;;;;;;;21.01;55.55;100114.81;5031301;28;4437;-78
2023/06/26 10:32:29;;;;;;;;;;;;;;;21.03;55.38;100125.44;5029141;28;4850;-79
2023/06/26 10:35:21;;;;;;;;;;;;;;;21.03;55.68;100107.13;5030236;28;4765;-75
2023/06/26 10:38:13;;;;;;;;;;;;;;;21.04;55.58;100102.47;5029899;28;4857;-78
2023/06/26 10:41:04;;;;;;;;;;;;;;;21.06;55.62;100105.69;5032140;28;4837;-78
2023/06/26 10:43:55;;;;;;;;;;;;;;;21.05;55.61;100091.19;5028639;28;4716;-77
2023/06/26 10:46:46;;;;;;;;;;;;;;;21.07;55.68;100082.69;5039703;28;4709;-76
2023/06/26 10:49:38;;;;;;;;;;;;;;;21.08;55.66;100087.03;5035942;28;4425;-79
2023/06/26 10:52:30;;;;;;;;;;;;;;;21.07;55.63;100058.88;5030468;28;4769;-77
2023/06/26 10:55:22;;;;;;;;;;;;;;;21.10;55.84;100054.72;5029491;28;4684;-76
2023/06/26 10:58:14;;;;;;;;;;;;;;;21.12;55.80;100059.88;5028679;28;5354;-78
2023/06/26 11:01:05;;;;;;;;;;;;;;;21.12;55.43;100066.19;5026697;28;4704;-77
2023/06/26 11:03:57;;;;;;;;;;;;;;;21.13;55.72;100053.31;5029644;28;4777;-76
2023/06/26 11:06:49;;;;;;;;;;;;;;;21.14;55.94;100061.19;5029402;28;5156;-77
2023/06/26 11:09:41;;;;;;;;;;;;;;;21.15;55.95;100051.88;5029224;28;4462;-76
2023/06/26 11:12:32;;;;;;;;;;;;;;;20.75;55.67;99985.81;5028769;28;5226;-78
2023/06/26 11:15:23;;;;;;;;;;;;;;;21.17;55.74;100037.88;5027194;28;5281;-76
2023/06/26 11:18:15;;;;;;;;;;;;;;;21.18;56.02;100039.50;5031143;28;5314;-76
2023/06/26 11:21:07;;;;;;;;;;;;;;;21.19;56.01;100039.22;5029312;28;5388;-76
2023/06/26 11:24:00;;;;;;;;;;;;;;;21.19;55.81;100033.72;5030201;28;4555;-77
2023/06/26 11:26:52;;;;;;;;;;;;;;;21.20;55.88;100016.19;5026422;28;5225;-75
2023/06/26 11:29:43;;;;;;;;;;;;;;;21.24;55.94;100027.34;5028134;28;4468;-76
2023/06/26 11:32:35;;;;;;;;;;;;;;;21.24;56.10;100019.94;5026952;28;5119;-76
2023/06/26 11:35:30;;;;;;;;;;;;;;;21.26;56.07;100027.84;5026636;28;4905;-75
2023/06/26 11:38:21;;;;;;;;;;;;;;;21.26;56.07;100012.22;5031045;28;4917;-75
2023/06/26 11:41:12;;;;;;;;;;;;;;;21.28;55.97;100014.66;5027903;28;4751;-79
2023/06/26 11:44:04;;;;;;;;;;;;;;;21.28;56.24;100000.97;5030197;28;5592;-77
2023/06/26 11:46:56;;;;;;;;;;;;;;;21.29;55.96;99997.13;5026666;28;5041;-78
2023/06/26 11:49:47;;;;;;;;;;;;;;;21.30;55.85;100007.78;5034621;28;4607;-76
2023/06/26 11:52:38;;;;;;;;;;;;;;;21.31;56.28;100003.91;5032233;28;5382;-77
2023/06/26 11:55:30;;;;;;;;;;;;;;;21.33;56.16;99998.94;5026325;28;4784;-75
2023/06/26 11:58:22;;;;;;;;;;;;;;;21.35;56.22;99995.88;5029431;28;5017;-75
2023/06/26 12:01:14;;;;;;;;;;;;;;;21.36;56.18;99986.59;5027069;28;5378;-76
2023/06/26 12:04:06;;;;;;;;;;;;;;;21.38;56.27;99989.03;5024952;28;5537;-77
2023/06/26 12:06:58;;;;;;;;;;;;;;;21.39;56.12;99987.94;5027507;28;4493;-78
2023/06/26 12:09:50;;;;;;;;;;;;;;;21.40;56.11;99978.59;5027132;28;5277;-79
2023/06/26 12:12:42;;;;;;;;;;;;;;;21.41;56.10;99980.19;5026603;28;4740;-78
2023/06/26 12:15:34;;;;;;;;;;;;;;;21.43;56.43;99977.97;5025196;28;5457;-77
2023/06/26 12:18:26;;;;;;;;;;;;;;;21.45;56.28;99982.03;5027658;28;5052;-76
2023/06/26 12:21:18;;;;;;;;;;;;;;;21.46;56.36;99978.16;5029204;28;4753;-75
2023/06/26 12:24:10;;;;;;;;;;;;;;;21.47;56.51;99974.34;5026520;28;5226;-75
2023/06/26 12:27:02;;;;;;;;;;;;;;;21.46;56.55;99977.38;5024146;28;4844;-75
2023/06/26 12:29:54;;;;;;;;;;;;;;;21.06;56.54;99912.16;5024476;28;4560;-77
2023/06/26 12:32:45;;;;;;;;;;;;;;;21.48;56.59;99973.19;5027476;28;5432;-75
2023/06/26 12:35:37;;;;;;;;;;;;;;;21.50;56.81;99972.88;5028769;28;4620;-76
2023/06/26 12:38:29;;;;;;;;;;;;;;;21.52;56.50;99967.91;5023607;28;4940;-76
2023/06/26 12:41:20;;;;;;;;;;;;;;;21.53;56.53;99980.47;5028910;28;4757;-79
2023/06/26 12:44:12;;;;;;;;;;;;;;;21.52;56.74;99976.13;5030582;28;5296;-75
2023/06/26 12:47:06;;;;;;;;;;;;;;;21.53;56.79;99981.31;5021489;28;4805;-76
2023/06/26 12:49:57;;;;;;;;;;;;;;;21.56;56.60;99977.16;5035035;28;4731;-76
2023/06/26 12:52:49;;;;;;;;;;;;;;;21.57;56.75;99988.94;5016958;28;4463;-77
2023/06/26 12:55:40;;;;;;;;;;;;;;;21.59;56.75;99976.53;5028932;28;4842;-76
2023/06/26 12:58:32;;;;;;;;;;;;;;;21.59;56.69;99984.75;5032021;28;4730;-77
2023/06/26 13:01:24;;;;;;;;;;;;;;;21.63;56.75;99984.97;5029488;28;5075;-76
2023/06/26 13:04:15;;;;;;;;;;;;;;;21.63;56.85;99979.47;5026497;28;5459;-78
2023/06/26 13:07:07;;;;;;;;;;;;;;;21.63;56.92;99961.09;5028585;28;5233;-76
2023/06/26 13:09:58;;;;;;;;;;;;;;;21.62;56.92;99955.91;5029523;28;4661;-78
2023/06/26 13:12:50;;;;;;;;;;;;;;;21.62;57.14;99945.78;5026385;28;4588;-78
2023/06/26 13:15:42;;;;;;;;;;;;;;;21.63;57.34;99941.91;5023888;28;4730;-77
2023/06/26 13:18:34;;;;;;;;;;;;;;;21.65;57.02;99938.84;5035039;28;5437;-76
2023/06/26 13:21:26;;;;;;;;;;;;;;;21.66;57.10;99927.59;5028918;28;5062;-75
2023/06/26 13:24:18;;;;;;;;;;;;;;;21.66;57.01;99924.88;5021738;28;4668;-76
2023/06/26 13:27:10;;;;;;;;;;;;;;;21.68;57.42;99924.56;5024697;28;5360;-76
2023/06/26 13:30:02;;;;;;;;;;;;;;;21.69;57.07;99924.25;5020488;28;4792;-77
2023/06/26 13:32:53;;;;;;;;;;;;;;;21.71;57.06;99916.53;5026213;28;4804;-75
2023/06/26 13:35:44;;;;;;;;;;;;;;;21.71;57.03;99913.78;5025022;28;5455;-77
2023/06/26 13:38:36;;;;;;;;;;;;;;;21.74;57.40;99906.88;5033712;28;4546;-76
2023/06/26 13:41:28;;;;;;;;;;;;;;;21.75;57.09;99908.50;5025919;28;5394;-76
2023/06/26 13:44:20;;;;;;;;;;;;;;;21.75;56.96;99906.56;5035656;28;4755;-76
2023/06/26 13:47:12;;;;;;;;;;;;;;;21.76;57.31;99907.38;5034575;28;4774;-77
2023/06/26 13:50:05;;;;;;;;;;;;;;;21.77;57.36;99907.06;5027881;28;4370;-77
2023/06/26 13:52:57;;;;;;;;;;;;;;;21.79;57.00;99904.00;5029345;28;4806;-78
2023/06/26 13:55:48;;;;;;;;;;;;;;;21.78;56.99;99903.19;5030297;28;4813;-77
2023/06/26 13:58:40;;;;;;;;;;;;;;;21.81;57.23;99895.50;5031343;28;5309;-77
2023/06/26 14:01:32;;;;;;;;;;;;;;;21.81;57.27;99893.56;5032708;28;5291;-77
2023/06/26 14:04:23;;;;;;;;;;;;;;;21.83;57.21;99882.28;5030733;28;4642;-77
2023/06/26 14:07:15;;;;;;;;;;;;;;;21.84;57.04;99881.16;5027174;28;4768;-78
2023/06/26 14:10:07;;;;;;;;;;;;;;;21.85;57.29;99871.81;5028790;28;4851;-76
2023/06/26 14:12:59;;;;;;;;;;;;;;;21.86;57.12;99873.44;5029944;28;5370;-78
2023/06/26 14:15:52;;;;;;;;;;;;;;;21.88;56.97;99869.25;5027800;28;5245;-77
2023/06/26 14:18:44;;;;;;;;;;;;;;;21.88;57.16;99869.25;5029403;28;5630;-76
2023/06/26 14:21:36;;;;;;;;;;;;;;;21.88;57.35;99869.25;5029120;28;4676;-77
2023/06/26 14:24:28;;;;;;;;;;;;;;;21.90;57.29;99871.69;5029402;28;5434;-78
2023/06/26 14:27:20;;;;;;;;;;;;;;;21.90;57.20;99877.19;5026430;28;4921;-77
2023/06/26 14:30:12;;;;;;;;;;;;;;;21.91;57.40;99870.56;5028941;28;4761;-77
2023/06/26 14:33:04;;;;;;;;;;;;;;;21.94;57.15;99869.94;5029809;28;5386;-76
2023/06/26 14:35:55;;;;;;;;;;;;;;;21.94;57.24;99879.00;5027873;28;4704;-76
2023/06/26 14:38:47;;;;;;;;;;;;;;;21.95;57.28;99852.38;5029067;28;4668;-75
2023/06/26 14:41:39;;;;;;;;;;;;;;;21.98;57.25;99860.78;5030236;28;4759;-79
2023/06/26 14:44:31;;;;;;;;;;;;;;;21.99;57.40;99872.56;5033209;28;4828;-76
2023/06/26 14:47:23;;;;;;;;;;;;;;;21.98;57.27;99882.72;5025064;28;4713;-77
2023/06/26 14:50:15;;;;;;;;;;;;;;;22.01;57.50;99892.25;5028319;28;4965;-78
2023/06/26 14:53:06;;;;;;;;;;;;;;;22.02;57.38;99895.81;5026703;28;4809;-77
2023/06/26 14:55:58;;;;;;;;;;;;;;;22.02;57.45;99899.34;5029870;28;4952;-78